sensor_id;sensor_type;location;lat;lon;timestamp;P1;durP1;ratioP1;P2;durP2;ratioP2
59960;SDS011;55902;-37.980;-63.602;2023-04-06T00:00:40;6.68;;;2.45;;
59960;SDS011;55902;-37.980;-63.602;2023-04-06T00:03:07;6.45;;;3.10;;
59960;SDS011;55902;-37.980;-63.602;2023-04-06T00:05:34;6.82;;;2.30;;
59960;SDS011;55902;-37.980;-63.602;2023-04-06T00:08:01;7.10;;;2.95;;
59960;SDS011;55902;-37.980;-63.602;2023-04-06T00:10:28;5.70;;;2.70;;
59960;SDS011;55902;-37.980;-63.602;2023-04-06T00:12:55;9.27;;;2.80;;
59960;SDS011;55902;-37.980;-63.602;2023-04-06T00:15:23;7.13;;;3.13;;
59960;SDS011;55902;-37.980;-63.602;2023-04-06T00:17:50;5.80;;;2.60;;
59960;SDS011;55902;-37.980;-63.602;2023-04-06T00:20:18;5.85;;;2.88;;
59960;SDS011;55902;-37.980;-63.602;2023-04-06T00:22:45;4.75;;;2.80;;
59960;SDS011;55902;-37.980;-63.602;2023-04-06T00:25:12;5.32;;;2.60;;
59960;SDS011;55902;-37.980;-63.602;2023-04-06T00:27:40;6.55;;;2.80;;
59960;SDS011;55902;-37.980;-63.602;2023-04-06T00:30:08;5.05;;;2.65;;
59960;SDS011;55902;-37.980;-63.602;2023-04-06T00:32:35;7.82;;;3.03;;
59960;SDS011;55902;-37.980;-63.602;2023-04-06T00:35:03;4.97;;;2.60;;
59960;SDS011;55902;-37.980;-63.602;2023-04-06T00:37:31;5.68;;;2.78;;
59960;SDS011;55902;-37.980;-63.602;2023-04-06T00:39:58;7.63;;;2.70;;
59960;SDS011;55902;-37.980;-63.602;2023-04-06T00:42:25;6.53;;;2.60;;
59960;SDS011;55902;-37.980;-63.602;2023-04-06T00:44:56;3.97;;;2.40;;
59960;SDS011;55902;-37.980;-63.602;2023-04-06T00:47:25;7.60;;;2.88;;
59960;SDS011;55902;-37.980;-63.602;2023-04-06T00:49:52;5.50;;;2.53;;
59960;SDS011;55902;-37.980;-63.602;2023-04-06T00:52:20;5.53;;;2.47;;
59960;SDS011;55902;-37.980;-63.602;2023-04-06T00:54:48;7.30;;;2.40;;
59960;SDS011;55902;-37.980;-63.602;2023-04-06T00:57:16;5.38;;;2.50;;
59960;SDS011;55902;-37.980;-63.602;2023-04-06T00:59:43;5.85;;;2.90;;
59960;SDS011;55902;-37.980;-63.602;2023-04-06T01:02:10;7.20;;;2.17;;
59960;SDS011;55902;-37.980;-63.602;2023-04-06T01:04:37;5.95;;;2.70;;
59960;SDS011;55902;-37.980;-63.602;2023-04-06T01:07:05;9.40;;;2.38;;
59960;SDS011;55902;-37.980;-63.602;2023-04-06T01:09:32;6.00;;;2.20;;
59960;SDS011;55902;-37.980;-63.602;2023-04-06T01:11:59;4.68;;;2.40;;
59960;SDS011;55902;-37.980;-63.602;2023-04-06T01:14:26;4.53;;;2.10;;
59960;SDS011;55902;-37.980;-63.602;2023-04-06T01:16:53;6.07;;;2.45;;
59960;SDS011;55902;-37.980;-63.602;2023-04-06T01:19:21;6.68;;;3.05;;
59960;SDS011;55902;-37.980;-63.602;2023-04-06T01:25:11;6.53;;;2.40;;
59960;SDS011;55902;-37.980;-63.602;2023-04-06T01:27:39;4.80;;;2.22;;
59960;SDS011;55902;-37.980;-63.602;2023-04-06T01:30:06;8.35;;;2.50;;
59960;SDS011;55902;-37.980;-63.602;2023-04-06T01:32:33;5.53;;;2.20;;
59960;SDS011;55902;-37.980;-63.602;2023-04-06T01:35:00;7.22;;;2.40;;
59960;SDS011;55902;-37.980;-63.602;2023-04-06T01:37:27;4.88;;;2.30;;
59960;SDS011;55902;-37.980;-63.602;2023-04-06T01:39:57;7.18;;;2.60;;
59960;SDS011;55902;-37.980;-63.602;2023-04-06T01:42:24;6.70;;;3.30;;
59960;SDS011;55902;-37.980;-63.602;2023-04-06T01:44:51;9.63;;;6.07;;
59960;SDS011;55902;-37.980;-63.602;2023-04-06T01:47:18;13.02;;;8.63;;
59960;SDS011;55902;-37.980;-63.602;2023-04-06T01:49:45;18.88;;;13.45;;
59960;SDS011;55902;-37.980;-63.602;2023-04-06T01:52:12;19.38;;;13.85;;
59960;SDS011;55902;-37.980;-63.602;2023-04-06T01:54:39;22.98;;;14.73;;
59960;SDS011;55902;-37.980;-63.602;2023-04-06T01:57:06;23.33;;;15.68;;
59960;SDS011;55902;-37.980;-63.602;2023-04-06T01:59:33;25.45;;;15.38;;
59960;SDS011;55902;-37.980;-63.602;2023-04-06T02:02:00;24.80;;;14.50;;
59960;SDS011;55902;-37.980;-63.602;2023-04-06T02:04:27;28.15;;;13.88;;
59960;SDS011;55902;-37.980;-63.602;2023-04-06T02:06:54;27.90;;;12.30;;
59960;SDS011;55902;-37.980;-63.602;2023-04-06T02:09:21;24.70;;;11.70;;
59960;SDS011;55902;-37.980;-63.602;2023-04-06T02:11:48;19.55;;;8.98;;
59960;SDS011;55902;-37.980;-63.602;2023-04-06T02:14:15;17.70;;;7.43;;
59960;SDS011;55902;-37.980;-63.602;2023-04-06T02:16:42;13.50;;;5.07;;
59960;SDS011;55902;-37.980;-63.602;2023-04-06T02:19:09;9.40;;;4.78;;
59960;SDS011;55902;-37.980;-63.602;2023-04-06T02:21:36;10.98;;;3.92;;
59960;SDS011;55902;-37.980;-63.602;2023-04-06T02:24:03;5.15;;;2.22;;
59960;SDS011;55902;-37.980;-63.602;2023-04-06T02:26:30;4.35;;;2.40;;
59960;SDS011;55902;-37.980;-63.602;2023-04-06T02:28:57;7.22;;;2.40;;
59960;SDS011;55902;-37.980;-63.602;2023-04-06T02:31:27;4.38;;;2.28;;
59960;SDS011;55902;-37.980;-63.602;2023-04-06T02:33:54;5.57;;;2.58;;
59960;SDS011;55902;-37.980;-63.602;2023-04-06T02:36:21;6.55;;;2.67;;
59960;SDS011;55902;-37.980;-63.602;2023-04-06T02:38:48;4.78;;;2.50;;
59960;SDS011;55902;-37.980;-63.602;2023-04-06T02:41:15;8.00;;;2.80;;
59960;SDS011;55902;-37.980;-63.602;2023-04-06T02:43:42;7.03;;;2.80;;
59960;SDS011;55902;-37.980;-63.602;2023-04-06T02:46:09;7.70;;;3.10;;
59960;SDS011;55902;-37.980;-63.602;2023-04-06T02:48:36;8.35;;;4.00;;
59960;SDS011;55902;-37.980;-63.602;2023-04-06T02:51:03;13.57;;;4.32;;
59960;SDS011;55902;-37.980;-63.602;2023-04-06T02:53:31;9.52;;;3.90;;
59960;SDS011;55902;-37.980;-63.602;2023-04-06T02:55:58;10.75;;;3.67;;
59960;SDS011;55902;-37.980;-63.602;2023-04-06T02:58:25;5.95;;;2.47;;
59960;SDS011;55902;-37.980;-63.602;2023-04-06T03:00:52;4.75;;;2.50;;
59960;SDS011;55902;-37.980;-63.602;2023-04-06T03:03:19;6.93;;;2.70;;
59960;SDS011;55902;-37.980;-63.602;2023-04-06T03:05:46;6.28;;;2.60;;
59960;SDS011;55902;-37.980;-63.602;2023-04-06T03:08:13;8.00;;;2.80;;
59960;SDS011;55902;-37.980;-63.602;2023-04-06T03:10:40;7.88;;;3.00;;
59960;SDS011;55902;-37.980;-63.602;2023-04-06T03:13:07;8.20;;;3.40;;
59960;SDS011;55902;-37.980;-63.602;2023-04-06T03:15:34;9.77;;;3.33;;
59960;SDS011;55902;-37.980;-63.602;2023-04-06T03:18:01;7.03;;;2.88;;
59960;SDS011;55902;-37.980;-63.602;2023-04-06T03:20:28;4.82;;;2.38;;
59960;SDS011;55902;-37.980;-63.602;2023-04-06T03:22:55;4.22;;;2.33;;
59960;SDS011;55902;-37.980;-63.602;2023-04-06T03:25:22;5.55;;;2.50;;
59960;SDS011;55902;-37.980;-63.602;2023-04-06T03:27:49;6.53;;;2.28;;
59960;SDS011;55902;-37.980;-63.602;2023-04-06T03:30:17;4.88;;;2.30;;
59960;SDS011;55902;-37.980;-63.602;2023-04-06T03:32:44;6.45;;;2.72;;
59960;SDS011;55902;-37.980;-63.602;2023-04-06T03:35:11;3.63;;;1.80;;
59960;SDS011;55902;-37.980;-63.602;2023-04-06T03:37:38;9.43;;;2.22;;
59960;SDS011;55902;-37.980;-63.602;2023-04-06T03:40:06;5.90;;;2.40;;
59960;SDS011;55902;-37.980;-63.602;2023-04-06T03:42:36;4.22;;;2.30;;
59960;SDS011;55902;-37.980;-63.602;2023-04-06T03:45:03;5.72;;;2.42;;
59960;SDS011;55902;-37.980;-63.602;2023-04-06T03:47:30;4.43;;;2.13;;
59960;SDS011;55902;-37.980;-63.602;2023-04-06T03:49:57;3.95;;;2.10;;
59960;SDS011;55902;-37.980;-63.602;2023-04-06T03:52:24;3.65;;;2.08;;
59960;SDS011;55902;-37.980;-63.602;2023-04-06T03:54:52;4.50;;;2.10;;
59960;SDS011;55902;-37.980;-63.602;2023-04-06T03:57:19;5.20;;;2.10;;
59960;SDS011;55902;-37.980;-63.602;2023-04-06T03:59:46;6.43;;;2.35;;
59960;SDS011;55902;-37.980;-63.602;2023-04-06T04:02:12;5.40;;;2.40;;
59960;SDS011;55902;-37.980;-63.602;2023-04-06T04:04:40;8.07;;;2.95;;
59960;SDS011;55902;-37.980;-63.602;2023-04-06T04:07:07;5.82;;;2.70;;
59960;SDS011;55902;-37.980;-63.602;2023-04-06T04:09:33;7.07;;;2.80;;
59960;SDS011;55902;-37.980;-63.602;2023-04-06T04:12:00;6.90;;;2.60;;
59960;SDS011;55902;-37.980;-63.602;2023-04-06T04:14:27;9.02;;;2.75;;
59960;SDS011;55902;-37.980;-63.602;2023-04-06T04:16:54;5.28;;;2.70;;
59960;SDS011;55902;-37.980;-63.602;2023-04-06T04:19:21;7.60;;;2.70;;
59960;SDS011;55902;-37.980;-63.602;2023-04-06T04:21:48;5.07;;;2.72;;
59960;SDS011;55902;-37.980;-63.602;2023-04-06T04:24:15;6.82;;;2.72;;
59960;SDS011;55902;-37.980;-63.602;2023-04-06T04:26:42;6.40;;;2.80;;
59960;SDS011;55902;-37.980;-63.602;2023-04-06T04:29:09;5.57;;;2.53;;
59960;SDS011;55902;-37.980;-63.602;2023-04-06T04:31:36;4.78;;;2.35;;
59960;SDS011;55902;-37.980;-63.602;2023-04-06T04:44:09;4.70;;;2.10;;
59960;SDS011;55902;-37.980;-63.602;2023-04-06T04:46:36;3.35;;;2.00;;
59960;SDS011;55902;-37.980;-63.602;2023-04-06T04:49:03;5.88;;;1.90;;
59960;SDS011;55902;-37.980;-63.602;2023-04-06T04:51:30;3.15;;;2.03;;
59960;SDS011;55902;-37.980;-63.602;2023-04-06T04:53:58;4.03;;;2.10;;
59960;SDS011;55902;-37.980;-63.602;2023-04-06T04:56:25;5.03;;;2.38;;
59960;SDS011;55902;-37.980;-63.602;2023-04-06T04:58:53;3.13;;;2.00;;
59960;SDS011;55902;-37.980;-63.602;2023-04-06T05:01:20;3.28;;;2.17;;
59960;SDS011;55902;-37.980;-63.602;2023-04-06T05:03:47;4.45;;;2.17;;
59960;SDS011;55902;-37.980;-63.602;2023-04-06T05:06:13;6.03;;;2.20;;
59960;SDS011;55902;-37.980;-63.602;2023-04-06T05:08:41;3.67;;;2.20;;
59960;SDS011;55902;-37.980;-63.602;2023-04-06T05:11:08;4.80;;;2.00;;
59960;SDS011;55902;-37.980;-63.602;2023-04-06T05:13:35;4.35;;;2.03;;
59960;SDS011;55902;-37.980;-63.602;2023-04-06T05:16:02;2.90;;;2.00;;
59960;SDS011;55902;-37.980;-63.602;2023-04-06T05:18:29;5.40;;;1.90;;
59960;SDS011;55902;-37.980;-63.602;2023-04-06T05:20:56;3.17;;;2.10;;
59960;SDS011;55902;-37.980;-63.602;2023-04-06T05:23:24;3.58;;;1.90;;
59960;SDS011;55902;-37.980;-63.602;2023-04-06T05:25:51;6.60;;;2.10;;
59960;SDS011;55902;-37.980;-63.602;2023-04-06T05:28:18;5.25;;;2.10;;
59960;SDS011;55902;-37.980;-63.602;2023-04-06T05:30:45;5.47;;;2.33;;
59960;SDS011;55902;-37.980;-63.602;2023-04-06T05:33:12;3.00;;;1.95;;
59960;SDS011;55902;-37.980;-63.602;2023-04-06T05:35:39;4.70;;;2.00;;
59960;SDS011;55902;-37.980;-63.602;2023-04-06T05:38:07;2.47;;;2.00;;
59960;SDS011;55902;-37.980;-63.602;2023-04-06T05:40:37;3.03;;;1.90;;
59960;SDS011;55902;-37.980;-63.602;2023-04-06T05:43:06;5.07;;;2.00;;
59960;SDS011;55902;-37.980;-63.602;2023-04-06T05:45:33;4.18;;;1.90;;
59960;SDS011;55902;-37.980;-63.602;2023-04-06T05:48:01;3.65;;;1.85;;
59960;SDS011;55902;-37.980;-63.602;2023-04-06T05:50:28;3.75;;;1.90;;
59960;SDS011;55902;-37.980;-63.602;2023-04-06T05:52:55;2.50;;;1.92;;
59960;SDS011;55902;-37.980;-63.602;2023-04-06T05:55:22;4.63;;;1.90;;
59960;SDS011;55902;-37.980;-63.602;2023-04-06T05:57:49;6.00;;;2.20;;
59960;SDS011;55902;-37.980;-63.602;2023-04-06T06:00:16;2.42;;;1.90;;
59960;SDS011;55902;-37.980;-63.602;2023-04-06T06:02:43;3.53;;;1.80;;
59960;SDS011;55902;-37.980;-63.602;2023-04-06T06:05:10;5.03;;;1.92;;
59960;SDS011;55902;-37.980;-63.602;2023-04-06T06:07:37;5.28;;;2.22;;
59960;SDS011;55902;-37.980;-63.602;2023-04-06T06:10:04;5.68;;;1.75;;
59960;SDS011;55902;-37.980;-63.602;2023-04-06T06:12:31;3.70;;;2.03;;
59960;SDS011;55902;-37.980;-63.602;2023-04-06T06:14:58;3.35;;;1.90;;
59960;SDS011;55902;-37.980;-63.602;2023-04-06T06:17:26;4.22;;;2.08;;
59960;SDS011;55902;-37.980;-63.602;2023-04-06T06:19:53;4.80;;;2.00;;
59960;SDS011;55902;-37.980;-63.602;2023-04-06T06:22:20;7.88;;;2.00;;
59960;SDS011;55902;-37.980;-63.602;2023-04-06T06:24:47;4.88;;;1.90;;
59960;SDS011;55902;-37.980;-63.602;2023-04-06T06:27:15;4.35;;;1.85;;
59960;SDS011;55902;-37.980;-63.602;2023-04-06T06:29:42;3.85;;;1.90;;
59960;SDS011;55902;-37.980;-63.602;2023-04-06T06:32:09;4.28;;;1.90;;
59960;SDS011;55902;-37.980;-63.602;2023-04-06T06:34:35;5.45;;;1.90;;
59960;SDS011;55902;-37.980;-63.602;2023-04-06T06:37:02;7.93;;;2.15;;
59960;SDS011;55902;-37.980;-63.602;2023-04-06T06:39:30;3.67;;;1.73;;
59960;SDS011;55902;-37.980;-63.602;2023-04-06T06:41:57;3.78;;;1.92;;
59960;SDS011;55902;-37.980;-63.602;2023-04-06T06:44:26;9.07;;;2.45;;
59960;SDS011;55902;-37.980;-63.602;2023-04-06T06:46:54;2.58;;;1.80;;
59960;SDS011;55902;-37.980;-63.602;2023-04-06T06:49:21;4.47;;;1.90;;
59960;SDS011;55902;-37.980;-63.602;2023-04-06T06:51:48;3.67;;;1.90;;
59960;SDS011;55902;-37.980;-63.602;2023-04-06T06:54:15;3.58;;;1.80;;
59960;SDS011;55902;-37.980;-63.602;2023-04-06T06:56:42;3.38;;;2.05;;
59960;SDS011;55902;-37.980;-63.602;2023-04-06T06:59:09;4.97;;;1.80;;
59960;SDS011;55902;-37.980;-63.602;2023-04-06T07:01:36;4.15;;;1.80;;
59960;SDS011;55902;-37.980;-63.602;2023-04-06T07:04:03;6.90;;;1.80;;
59960;SDS011;55902;-37.980;-63.602;2023-04-06T07:06:30;3.08;;;1.70;;
59960;SDS011;55902;-37.980;-63.602;2023-04-06T07:08:57;3.63;;;1.70;;
59960;SDS011;55902;-37.980;-63.602;2023-04-06T07:11:24;5.10;;;1.70;;
59960;SDS011;55902;-37.980;-63.602;2023-04-06T07:13:51;6.38;;;2.00;;
59960;SDS011;55902;-37.980;-63.602;2023-04-06T07:16:18;2.95;;;1.83;;
59960;SDS011;55902;-37.980;-63.602;2023-04-06T07:18:45;2.63;;;1.80;;
59960;SDS011;55902;-37.980;-63.602;2023-04-06T07:21:12;4.90;;;2.17;;
59960;SDS011;55902;-37.980;-63.602;2023-04-06T07:23:39;2.78;;;1.83;;
59960;SDS011;55902;-37.980;-63.602;2023-04-06T07:26:06;4.30;;;1.80;;
59960;SDS011;55902;-37.980;-63.602;2023-04-06T07:28:33;4.32;;;1.73;;
59960;SDS011;55902;-37.980;-63.602;2023-04-06T07:31:00;3.40;;;2.03;;
59960;SDS011;55902;-37.980;-63.602;2023-04-06T07:33:27;4.47;;;1.90;;
59960;SDS011;55902;-37.980;-63.602;2023-04-06T07:35:55;4.13;;;1.90;;
59960;SDS011;55902;-37.980;-63.602;2023-04-06T07:38:23;3.53;;;1.90;;
59960;SDS011;55902;-37.980;-63.602;2023-04-06T07:40:50;3.92;;;1.70;;
59960;SDS011;55902;-37.980;-63.602;2023-04-06T07:43:17;3.88;;;2.13;;
59960;SDS011;55902;-37.980;-63.602;2023-04-06T07:45:44;3.65;;;1.70;;
59960;SDS011;55902;-37.980;-63.602;2023-04-06T07:48:11;4.13;;;1.85;;
59960;SDS011;55902;-37.980;-63.602;2023-04-06T07:50:38;3.65;;;1.92;;
59960;SDS011;55902;-37.980;-63.602;2023-04-06T07:53:05;3.22;;;1.80;;
59960;SDS011;55902;-37.980;-63.602;2023-04-06T07:55:32;3.05;;;1.80;;
59960;SDS011;55902;-37.980;-63.602;2023-04-06T07:57:59;4.72;;;1.92;;
59960;SDS011;55902;-37.980;-63.602;2023-04-06T08:00:26;4.70;;;1.88;;
59960;SDS011;55902;-37.980;-63.602;2023-04-06T08:02:53;2.58;;;1.73;;
59960;SDS011;55902;-37.980;-63.602;2023-04-06T08:05:20;4.72;;;1.90;;
59960;SDS011;55902;-37.980;-63.602;2023-04-06T08:07:47;4.60;;;1.92;;
59960;SDS011;55902;-37.980;-63.602;2023-04-06T08:10:14;2.55;;;1.65;;
59960;SDS011;55902;-37.980;-63.602;2023-04-06T08:12:41;3.95;;;1.70;;
59960;SDS011;55902;-37.980;-63.602;2023-04-06T08:15:08;3.22;;;1.80;;
59960;SDS011;55902;-37.980;-63.602;2023-04-06T08:17:35;3.33;;;1.77;;
59960;SDS011;55902;-37.980;-63.602;2023-04-06T08:20:02;3.58;;;1.65;;
59960;SDS011;55902;-37.980;-63.602;2023-04-06T08:22:29;2.00;;;1.70;;
59960;SDS011;55902;-37.980;-63.602;2023-04-06T08:24:56;2.85;;;1.70;;
59960;SDS011;55902;-37.980;-63.602;2023-04-06T08:27:23;2.15;;;1.50;;
59960;SDS011;55902;-37.980;-63.602;2023-04-06T08:29:50;4.65;;;1.70;;
59960;SDS011;55902;-37.980;-63.602;2023-04-06T08:32:17;5.25;;;1.60;;
59960;SDS011;55902;-37.980;-63.602;2023-04-06T08:34:44;3.28;;;2.08;;
59960;SDS011;55902;-37.980;-63.602;2023-04-06T08:37:11;3.50;;;1.73;;
59960;SDS011;55902;-37.980;-63.602;2023-04-06T08:39:38;3.72;;;1.80;;
59960;SDS011;55902;-37.980;-63.602;2023-04-06T08:42:09;3.25;;;1.60;;
59960;SDS011;55902;-37.980;-63.602;2023-04-06T08:44:44;2.63;;;1.50;;
59960;SDS011;55902;-37.980;-63.602;2023-04-06T08:47:12;3.63;;;1.80;;
59960;SDS011;55902;-37.980;-63.602;2023-04-06T08:49:39;2.78;;;1.65;;
59960;SDS011;55902;-37.980;-63.602;2023-04-06T08:52:06;3.83;;;1.60;;
59960;SDS011;55902;-37.980;-63.602;2023-04-06T08:54:34;2.95;;;1.52;;
59960;SDS011;55902;-37.980;-63.602;2023-04-06T08:57:01;3.47;;;1.50;;
59960;SDS011;55902;-37.980;-63.602;2023-04-06T08:59:31;4.03;;;1.67;;
59960;SDS011;55902;-37.980;-63.602;2023-04-06T09:02:01;4.07;;;1.60;;
59960;SDS011;55902;-37.980;-63.602;2023-04-06T09:04:31;2.38;;;1.70;;
59960;SDS011;55902;-37.980;-63.602;2023-04-06T09:07:00;3.25;;;1.77;;
59960;SDS011;55902;-37.980;-63.602;2023-04-06T09:09:27;3.30;;;1.80;;
59960;SDS011;55902;-37.980;-63.602;2023-04-06T09:11:54;3.05;;;1.75;;
59960;SDS011;55902;-37.980;-63.602;2023-04-06T09:14:34;4.38;;;1.80;;
59960;SDS011;55902;-37.980;-63.602;2023-04-06T09:17:03;5.75;;;1.60;;
59960;SDS011;55902;-37.980;-63.602;2023-04-06T09:19:30;4.28;;;1.70;;
59960;SDS011;55902;-37.980;-63.602;2023-04-06T09:22:04;4.93;;;1.70;;
59960;SDS011;55902;-37.980;-63.602;2023-04-06T09:24:44;3.40;;;1.80;;
59960;SDS011;55902;-37.980;-63.602;2023-04-06T09:27:16;5.72;;;1.63;;
59960;SDS011;55902;-37.980;-63.602;2023-04-06T09:29:43;4.97;;;1.63;;
59960;SDS011;55902;-37.980;-63.602;2023-04-06T09:32:11;4.07;;;1.60;;
59960;SDS011;55902;-37.980;-63.602;2023-04-06T09:34:42;4.82;;;1.60;;
59960;SDS011;55902;-37.980;-63.602;2023-04-06T09:37:17;2.83;;;1.80;;
59960;SDS011;55902;-37.980;-63.602;2023-04-06T09:39:45;2.42;;;1.40;;
59960;SDS011;55902;-37.980;-63.602;2023-04-06T09:42:23;3.55;;;1.65;;
59960;SDS011;55902;-37.980;-63.602;2023-04-06T09:44:51;4.55;;;1.80;;
59960;SDS011;55902;-37.980;-63.602;2023-04-06T09:47:18;5.18;;;2.00;;
59960;SDS011;55902;-37.980;-63.602;2023-04-06T09:49:49;3.30;;;1.60;;
59960;SDS011;55902;-37.980;-63.602;2023-04-06T09:52:21;2.78;;;1.50;;
59960;SDS011;55902;-37.980;-63.602;2023-04-06T09:54:54;4.18;;;1.83;;
59960;SDS011;55902;-37.980;-63.602;2023-04-06T09:57:27;6.65;;;1.90;;
59960;SDS011;55902;-37.980;-63.602;2023-04-06T10:05:37;3.40;;;1.98;;
59960;SDS011;55902;-37.980;-63.602;2023-04-06T10:08:14;6.20;;;1.80;;
59960;SDS011;55902;-37.980;-63.602;2023-04-06T10:10:42;14.82;;;2.85;;
59960;SDS011;55902;-37.980;-63.602;2023-04-06T10:13:12;6.80;;;2.38;;
59960;SDS011;55902;-37.980;-63.602;2023-04-06T10:15:38;6.65;;;2.38;;
59960;SDS011;55902;-37.980;-63.602;2023-04-06T10:18:06;6.82;;;1.90;;
59960;SDS011;55902;-37.980;-63.602;2023-04-06T10:25:53;4.05;;;2.00;;
59960;SDS011;55902;-37.980;-63.602;2023-04-06T10:28:22;3.00;;;2.00;;
59960;SDS011;55902;-37.980;-63.602;2023-04-06T10:34:11;4.90;;;2.00;;
59960;SDS011;55902;-37.980;-63.602;2023-04-06T10:36:38;3.35;;;1.90;;
59960;SDS011;55902;-37.980;-63.602;2023-04-06T10:39:05;3.65;;;1.90;;
59960;SDS011;55902;-37.980;-63.602;2023-04-06T10:41:33;3.95;;;1.80;;
59960;SDS011;55902;-37.980;-63.602;2023-04-06T10:44:21;4.70;;;1.80;;
59960;SDS011;55902;-37.980;-63.602;2023-04-06T10:46:56;2.80;;;1.83;;
59960;SDS011;55902;-37.980;-63.602;2023-04-06T10:49:27;3.50;;;1.92;;
59960;SDS011;55902;-37.980;-63.602;2023-04-06T10:51:55;4.07;;;1.75;;
59960;SDS011;55902;-37.980;-63.602;2023-04-06T10:54:23;2.63;;;1.80;;
59960;SDS011;55902;-37.980;-63.602;2023-04-06T10:56:52;2.97;;;1.70;;
59960;SDS011;55902;-37.980;-63.602;2023-04-06T10:59:19;5.25;;;1.92;;
59960;SDS011;55902;-37.980;-63.602;2023-04-06T11:01:47;3.33;;;1.70;;
59960;SDS011;55902;-37.980;-63.602;2023-04-06T11:04:17;5.05;;;1.80;;
59960;SDS011;55902;-37.980;-63.602;2023-04-06T11:06:47;2.08;;;1.58;;
59960;SDS011;55902;-37.980;-63.602;2023-04-06T11:09:24;2.58;;;1.70;;
59960;SDS011;55902;-37.980;-63.602;2023-04-06T11:11:51;7.72;;;2.33;;
59960;SDS011;55902;-37.980;-63.602;2023-04-06T11:14:19;3.85;;;1.90;;
59960;SDS011;55902;-37.980;-63.602;2023-04-06T11:16:47;2.60;;;1.75;;
59960;SDS011;55902;-37.980;-63.602;2023-04-06T11:19:17;4.15;;;1.90;;
59960;SDS011;55902;-37.980;-63.602;2023-04-06T11:21:45;4.35;;;1.98;;
59960;SDS011;55902;-37.980;-63.602;2023-04-06T11:24:22;2.88;;;1.90;;
59960;SDS011;55902;-37.980;-63.602;2023-04-06T11:26:56;6.50;;;2.00;;
59960;SDS011;55902;-37.980;-63.602;2023-04-06T11:29:26;2.90;;;1.83;;
59960;SDS011;55902;-37.980;-63.602;2023-04-06T11:34:27;4.43;;;2.40;;
59960;SDS011;55902;-37.980;-63.602;2023-04-06T11:36:59;13.32;;;2.75;;
59960;SDS011;55902;-37.980;-63.602;2023-04-06T11:39:28;7.68;;;2.65;;
59960;SDS011;55902;-37.980;-63.602;2023-04-06T11:42:01;7.22;;;2.83;;
59960;SDS011;55902;-37.980;-63.602;2023-04-06T11:44:35;12.63;;;3.28;;
59960;SDS011;55902;-37.980;-63.602;2023-04-06T11:47:08;10.60;;;3.33;;
59960;SDS011;55902;-37.980;-63.602;2023-04-06T11:49:36;12.07;;;4.00;;
59960;SDS011;55902;-37.980;-63.602;2023-04-06T11:52:14;7.97;;;3.97;;
59960;SDS011;55902;-37.980;-63.602;2023-04-06T11:54:51;10.15;;;3.85;;
59960;SDS011;55902;-37.980;-63.602;2023-04-06T11:57:20;8.32;;;3.70;;
59960;SDS011;55902;-37.980;-63.602;2023-04-06T11:59:51;6.45;;;3.50;;
59960;SDS011;55902;-37.980;-63.602;2023-04-06T12:02:18;7.68;;;3.50;;
59960;SDS011;55902;-37.980;-63.602;2023-04-06T12:04:48;6.68;;;3.47;;
59960;SDS011;55902;-37.980;-63.602;2023-04-06T12:07:15;8.27;;;3.42;;
59960;SDS011;55902;-37.980;-63.602;2023-04-06T12:09:42;7.28;;;3.60;;
59960;SDS011;55902;-37.980;-63.602;2023-04-06T12:12:09;5.72;;;3.40;;
59960;SDS011;55902;-37.980;-63.602;2023-04-06T12:14:36;6.75;;;3.40;;
59960;SDS011;55902;-37.980;-63.602;2023-04-06T12:17:03;6.20;;;3.10;;
59960;SDS011;55902;-37.980;-63.602;2023-04-06T12:19:30;5.72;;;3.38;;
59960;SDS011;55902;-37.980;-63.602;2023-04-06T12:21:57;5.88;;;3.13;;
59960;SDS011;55902;-37.980;-63.602;2023-04-06T12:24:24;5.03;;;3.20;;
59960;SDS011;55902;-37.980;-63.602;2023-04-06T12:26:51;6.65;;;4.05;;
59960;SDS011;55902;-37.980;-63.602;2023-04-06T12:29:20;8.23;;;3.95;;
59960;SDS011;55902;-37.980;-63.602;2023-04-06T12:31:47;6.97;;;3.80;;
59960;SDS011;55902;-37.980;-63.602;2023-04-06T12:34:14;6.53;;;3.20;;
59960;SDS011;55902;-37.980;-63.602;2023-04-06T12:36:41;5.05;;;3.35;;
59960;SDS011;55902;-37.980;-63.602;2023-04-06T12:39:08;5.38;;;3.53;;
59960;SDS011;55902;-37.980;-63.602;2023-04-06T12:41:36;8.02;;;3.90;;
59960;SDS011;55902;-37.980;-63.602;2023-04-06T12:44:06;11.88;;;4.60;;
59960;SDS011;55902;-37.980;-63.602;2023-04-06T12:46:33;10.90;;;4.28;;
59960;SDS011;55902;-37.980;-63.602;2023-04-06T12:49:00;6.60;;;4.25;;
59960;SDS011;55902;-37.980;-63.602;2023-04-06T12:51:28;6.10;;;3.72;;
59960;SDS011;55902;-37.980;-63.602;2023-04-06T12:53:56;4.72;;;3.70;;
59960;SDS011;55902;-37.980;-63.602;2023-04-06T12:56:23;7.55;;;3.90;;
59960;SDS011;55902;-37.980;-63.602;2023-04-06T12:58:50;6.45;;;3.90;;
59960;SDS011;55902;-37.980;-63.602;2023-04-06T13:01:19;5.32;;;3.72;;
59960;SDS011;55902;-37.980;-63.602;2023-04-06T13:03:46;6.82;;;4.00;;
59960;SDS011;55902;-37.980;-63.602;2023-04-06T13:06:13;7.53;;;4.20;;
59960;SDS011;55902;-37.980;-63.602;2023-04-06T13:08:40;6.00;;;3.67;;
59960;SDS011;55902;-37.980;-63.602;2023-04-06T13:11:07;7.53;;;3.95;;
59960;SDS011;55902;-37.980;-63.602;2023-04-06T13:13:35;6.82;;;3.53;;
59960;SDS011;55902;-37.980;-63.602;2023-04-06T13:16:06;5.63;;;3.40;;
59960;SDS011;55902;-37.980;-63.602;2023-04-06T13:18:34;6.57;;;3.70;;
59960;SDS011;55902;-37.980;-63.602;2023-04-06T13:21:04;5.30;;;3.58;;
59960;SDS011;55902;-37.980;-63.602;2023-04-06T13:23:31;5.30;;;3.30;;
59960;SDS011;55902;-37.980;-63.602;2023-04-06T13:26:08;9.13;;;3.50;;
59960;SDS011;55902;-37.980;-63.602;2023-04-06T13:28:35;6.53;;;3.00;;
59960;SDS011;55902;-37.980;-63.602;2023-04-06T13:31:04;5.28;;;3.17;;
59960;SDS011;55902;-37.980;-63.602;2023-04-06T13:33:31;5.78;;;3.75;;
59960;SDS011;55902;-37.980;-63.602;2023-04-06T13:35:59;4.82;;;3.33;;
59960;SDS011;55902;-37.980;-63.602;2023-04-06T13:38:26;5.18;;;3.88;;
59960;SDS011;55902;-37.980;-63.602;2023-04-06T13:40:54;4.10;;;3.30;;
59960;SDS011;55902;-37.980;-63.602;2023-04-06T13:43:21;6.47;;;3.42;;
59960;SDS011;55902;-37.980;-63.602;2023-04-06T13:45:50;5.95;;;4.00;;
59960;SDS011;55902;-37.980;-63.602;2023-04-06T13:48:19;5.82;;;4.00;;
59960;SDS011;55902;-37.980;-63.602;2023-04-06T13:50:46;6.97;;;3.83;;
59960;SDS011;55902;-37.980;-63.602;2023-04-06T13:53:13;7.55;;;3.80;;
59960;SDS011;55902;-37.980;-63.602;2023-04-06T13:55:40;5.93;;;3.33;;
59960;SDS011;55902;-37.980;-63.602;2023-04-06T13:58:07;5.80;;;3.80;;
59960;SDS011;55902;-37.980;-63.602;2023-04-06T14:00:34;5.63;;;3.15;;
59960;SDS011;55902;-37.980;-63.602;2023-04-06T14:03:02;4.78;;;2.97;;
59960;SDS011;55902;-37.980;-63.602;2023-04-06T14:05:32;4.72;;;2.90;;
59960;SDS011;55902;-37.980;-63.602;2023-04-06T14:18:30;6.18;;;3.35;;
59960;SDS011;55902;-37.980;-63.602;2023-04-06T14:20:59;4.72;;;3.10;;
59960;SDS011;55902;-37.980;-63.602;2023-04-06T14:23:29;6.63;;;3.40;;
59960;SDS011;55902;-37.980;-63.602;2023-04-06T14:26:03;5.30;;;3.50;;
59960;SDS011;55902;-37.980;-63.602;2023-04-06T14:28:34;7.72;;;3.58;;
59960;SDS011;55902;-37.980;-63.602;2023-04-06T14:31:02;6.32;;;3.60;;
59960;SDS011;55902;-37.980;-63.602;2023-04-06T14:33:35;4.28;;;2.70;;
59960;SDS011;55902;-37.980;-63.602;2023-04-06T14:36:02;4.78;;;2.80;;
59960;SDS011;55902;-37.980;-63.602;2023-04-06T14:38:31;4.30;;;2.60;;
59960;SDS011;55902;-37.980;-63.602;2023-04-06T14:40:58;3.45;;;2.50;;
59960;SDS011;55902;-37.980;-63.602;2023-04-06T14:43:25;3.08;;;2.28;;
59960;SDS011;55902;-37.980;-63.602;2023-04-06T14:45:54;3.47;;;2.42;;
59960;SDS011;55902;-37.980;-63.602;2023-04-06T14:48:25;3.85;;;2.20;;
59960;SDS011;55902;-37.980;-63.602;2023-04-06T14:50:53;2.22;;;1.92;;
59960;SDS011;55902;-37.980;-63.602;2023-04-06T14:53:24;2.63;;;2.03;;